Terminal Aerodrome Forecast
Issued by NWS Dodge City, KS

Home | Current Version | Previous Version | Graphics & Text | Print | Product List | Glossary Off
Versions: 1 2 3 4 5 6 7 8 9 10 11 12 13 14 15 16 17 18 19 20 21 22 23 24

000
FTUS43 KDDC 230107 AAD
TAFDDC
TAF AMD
KDDC 230107Z 2301/2324 03017G26KT P6SM VCSH FEW040 SCT070 BKN100
     FM230200 03015G25KT P6SM VCTS BKN100CB
     FM230600 02010KT P6SM SKC
     FM231500 05010G20KT P6SM SKC
     FM231800 06010KT P6SM SCT080=

USA.gov is the U.S. government's official web portal to all federal, state and local government web resources and services.